Terminal Aerodrome Forecast
Issued by NWS Northern Indiana

Home | Current Version | Previous Version | Text Only | Print | Product List | Glossary Off
Versions: 1 2 3 4 5 6 7 8 9 10 11 12 13 14 15 16

000
FTUS43 KIWX 251100
TAFFWA
TAF
KFWA 251128Z 2512/2612 25015KT P6SM SCT015 OVC022
      TEMPO 2512/2515 6SM -DZ BR OVC015
     FM251500 24014KT P6SM BKN020 OVC035
     FM252100 20010KT P6SM SCT030 BKN250=

USA.gov is the U.S. government's official web portal to all federal, state and local government web resources and services.